sensor_id;sensor_type;location;lat;lon;timestamp;pressure;altitude;pressure_sealevel;temperature;humidity
9525;BME280;15940;48.734;9.112;2022-10-16T00:01:55;96503.69;;;14.57;86.60
9525;BME280;15940;48.734;9.112;2022-10-16T00:04:22;96501.47;;;14.55;86.51
9525;BME280;15940;48.734;9.112;2022-10-16T00:06:49;96504.00;;;14.53;86.60
9525;BME280;15940;48.734;9.112;2022-10-16T00:09:18;96505.25;;;14.52;86.42
9525;BME280;15940;48.734;9.112;2022-10-16T00:11:44;96508.69;;;14.53;86.72
9525;BME280;15940;48.734;9.112;2022-10-16T00:14:14;96506.25;;;14.49;86.58
9525;BME280;15940;48.734;9.112;2022-10-16T00:16:41;96503.53;;;14.49;86.76
9525;BME280;15940;48.734;9.112;2022-10-16T00:19:10;96503.31;;;14.47;86.68
9525;BME280;15940;48.734;9.112;2022-10-16T00:21:37;96503.56;;;14.44;86.81
9525;BME280;15940;48.734;9.112;2022-10-16T00:24:06;96497.91;;;14.42;86.77
9525;BME280;15940;48.734;9.112;2022-10-16T00:26:37;96504.88;;;14.37;86.73
9525;BME280;15940;48.734;9.112;2022-10-16T00:29:05;96505.34;;;14.41;86.65
9525;BME280;15940;48.734;9.112;2022-10-16T00:31:32;96503.63;;;14.38;86.72
9525;BME280;15940;48.734;9.112;2022-10-16T00:34:00;96502.38;;;14.39;86.51
9525;BME280;15940;48.734;9.112;2022-10-16T00:36:27;96497.22;;;14.36;86.68
9525;BME280;15940;48.734;9.112;2022-10-16T00:38:56;96501.72;;;14.33;86.49
9525;BME280;15940;48.734;9.112;2022-10-16T00:41:26;96503.72;;;14.33;86.57
9525;BME280;15940;48.734;9.112;2022-10-16T00:43:56;96506.94;;;14.31;86.86
9525;BME280;15940;48.734;9.112;2022-10-16T00:46:27;96505.44;;;14.30;86.85
9525;BME280;15940;48.734;9.112;2022-10-16T00:48:59;96507.97;;;14.28;86.66
9525;BME280;15940;48.734;9.112;2022-10-16T00:51:32;96501.50;;;14.31;86.71
9525;BME280;15940;48.734;9.112;2022-10-16T00:54:00;96496.53;;;14.29;86.71
9525;BME280;15940;48.734;9.112;2022-10-16T00:56:27;96502.00;;;14.29;86.66
9525;BME280;15940;48.734;9.112;2022-10-16T00:58:56;96509.94;;;14.27;86.62
9525;BME280;15940;48.734;9.112;2022-10-16T01:01:24;96505.75;;;14.26;86.72
9525;BME280;15940;48.734;9.112;2022-10-16T01:03:50;96514.13;;;14.28;86.77
9525;BME280;15940;48.734;9.112;2022-10-16T01:06:30;96520.84;;;14.27;86.78
9525;BME280;15940;48.734;9.112;2022-10-16T01:09:14;96515.69;;;14.24;86.89
9525;BME280;15940;48.734;9.112;2022-10-16T01:11:57;96525.56;;;14.27;87.02
9525;BME280;15940;48.734;9.112;2022-10-16T01:14:36;96525.34;;;14.25;87.19
9525;BME280;15940;48.734;9.112;2022-10-16T01:17:11;96525.84;;;14.23;87.20
9525;BME280;15940;48.734;9.112;2022-10-16T01:19:54;96530.09;;;14.19;87.12
9525;BME280;15940;48.734;9.112;2022-10-16T01:22:26;96526.63;;;14.18;87.18
9525;BME280;15940;48.734;9.112;2022-10-16T01:25:01;96513.31;;;14.15;87.32
9525;BME280;15940;48.734;9.112;2022-10-16T01:27:36;96507.38;;;14.11;87.33
9525;BME280;15940;48.734;9.112;2022-10-16T01:30:12;96517.31;;;14.08;87.51
9525;BME280;15940;48.734;9.112;2022-10-16T01:32:42;96514.38;;;14.06;87.07
9525;BME280;15940;48.734;9.112;2022-10-16T01:35:14;96519.59;;;14.04;87.24
9525;BME280;15940;48.734;9.112;2022-10-16T01:37:48;96511.44;;;14.04;87.55
9525;BME280;15940;48.734;9.112;2022-10-16T01:40:18;96507.25;;;14.03;87.74
9525;BME280;15940;48.734;9.112;2022-10-16T01:42:52;96504.00;;;14.05;87.51
9525;BME280;15940;48.734;9.112;2022-10-16T01:45:22;96506.22;;;14.06;87.64
9525;BME280;15940;48.734;9.112;2022-10-16T01:47:50;96496.56;;;14.05;87.62
9525;BME280;15940;48.734;9.112;2022-10-16T01:50:19;96505.47;;;14.06;87.80
9525;BME280;15940;48.734;9.112;2022-10-16T01:52:51;96506.44;;;14.08;87.71
9525;BME280;15940;48.734;9.112;2022-10-16T01:55:22;96497.31;;;14.06;87.94
9525;BME280;15940;48.734;9.112;2022-10-16T01:57:53;96496.34;;;14.03;87.94
9525;BME280;15940;48.734;9.112;2022-10-16T02:00:22;96500.06;;;14.00;88.04
9525;BME280;15940;48.734;9.112;2022-10-16T02:02:53;96499.84;;;13.98;88.02
9525;BME280;15940;48.734;9.112;2022-10-16T02:05:24;96500.81;;;14.00;87.94
9525;BME280;15940;48.734;9.112;2022-10-16T02:07:53;96493.66;;;13.97;87.93
9525;BME280;15940;48.734;9.112;2022-10-16T02:10:20;96498.09;;;14.00;88.22
9525;BME280;15940;48.734;9.112;2022-10-16T02:12:53;96496.63;;;13.99;88.19
9525;BME280;15940;48.734;9.112;2022-10-16T02:15:23;96499.06;;;14.03;88.16
9525;BME280;15940;48.734;9.112;2022-10-16T02:17:50;96509.44;;;14.05;88.08
9525;BME280;15940;48.734;9.112;2022-10-16T02:20:17;96510.94;;;14.06;88.27
9525;BME280;15940;48.734;9.112;2022-10-16T02:22:48;96517.31;;;14.08;88.05
9525;BME280;15940;48.734;9.112;2022-10-16T02:25:23;96513.34;;;14.09;87.85
9525;BME280;15940;48.734;9.112;2022-10-16T02:27:56;96513.56;;;14.11;87.96
9525;BME280;15940;48.734;9.112;2022-10-16T02:30:28;96501.94;;;14.11;87.93
9525;BME280;15940;48.734;9.112;2022-10-16T02:32:59;96506.44;;;14.08;87.67
9525;BME280;15940;48.734;9.112;2022-10-16T02:35:27;96495.03;;;14.10;87.72
9525;BME280;15940;48.734;9.112;2022-10-16T02:37:56;96490.09;;;14.08;87.79
9525;BME280;15940;48.734;9.112;2022-10-16T02:40:24;96497.53;;;14.08;88.15
9525;BME280;15940;48.734;9.112;2022-10-16T02:42:54;96504.97;;;14.07;88.18
9525;BME280;15940;48.734;9.112;2022-10-16T02:45:24;96496.56;;;14.05;88.09
9525;BME280;15940;48.734;9.112;2022-10-16T02:47:52;96501.78;;;14.03;88.18
9525;BME280;15940;48.734;9.112;2022-10-16T02:50:19;96507.72;;;14.01;88.08
9525;BME280;15940;48.734;9.112;2022-10-16T02:52:46;96509.22;;;14.03;88.62
9525;BME280;15940;48.734;9.112;2022-10-16T02:55:13;96516.19;;;13.98;88.41
9525;BME280;15940;48.734;9.112;2022-10-16T02:57:40;96527.09;;;13.98;88.32
9525;BME280;15940;48.734;9.112;2022-10-16T03:00:13;96524.38;;;13.98;88.32
9525;BME280;15940;48.734;9.112;2022-10-16T03:02:40;96517.44;;;13.97;88.35
9525;BME280;15940;48.734;9.112;2022-10-16T03:05:08;96519.94;;;13.95;88.53
9525;BME280;15940;48.734;9.112;2022-10-16T03:07:35;96517.97;;;13.95;88.55
9525;BME280;15940;48.734;9.112;2022-10-16T03:10:03;96517.00;;;13.93;88.63
9525;BME280;15940;48.734;9.112;2022-10-16T03:12:30;96512.78;;;13.92;88.69
9525;BME280;15940;48.734;9.112;2022-10-16T03:14:58;96511.31;;;13.91;88.85
9525;BME280;15940;48.734;9.112;2022-10-16T03:17:26;96510.56;;;13.90;88.80
9525;BME280;15940;48.734;9.112;2022-10-16T03:19:53;96523.66;;;13.92;88.80
9525;BME280;15940;48.734;9.112;2022-10-16T03:22:20;96520.22;;;13.91;88.77
9525;BME280;15940;48.734;9.112;2022-10-16T03:24:47;96518.00;;;13.90;88.73
9525;BME280;15940;48.734;9.112;2022-10-16T03:27:14;96519.97;;;13.89;88.87
9525;BME280;15940;48.734;9.112;2022-10-16T03:29:41;96517.03;;;13.87;89.09
9525;BME280;15940;48.734;9.112;2022-10-16T03:32:08;96518.81;;;13.85;88.96
9525;BME280;15940;48.734;9.112;2022-10-16T03:34:36;96522.53;;;13.82;89.08
9525;BME280;15940;48.734;9.112;2022-10-16T03:37:04;96522.81;;;13.78;89.22
9525;BME280;15940;48.734;9.112;2022-10-16T03:39:31;96526.78;;;13.77;89.17
9525;BME280;15940;48.734;9.112;2022-10-16T03:41:57;96517.13;;;13.76;89.26
9525;BME280;15940;48.734;9.112;2022-10-16T03:44:24;96518.63;;;13.77;89.29
9525;BME280;15940;48.734;9.112;2022-10-16T03:46:51;96511.69;;;13.76;89.39
9525;BME280;15940;48.734;9.112;2022-10-16T03:49:18;96514.63;;;13.78;89.22
9525;BME280;15940;48.734;9.112;2022-10-16T03:51:47;96525.53;;;13.78;89.29
9525;BME280;15940;48.734;9.112;2022-10-16T03:54:13;96526.78;;;13.77;89.19
9525;BME280;15940;48.734;9.112;2022-10-16T03:56:41;96530.25;;;13.78;89.32
9525;BME280;15940;48.734;9.112;2022-10-16T03:59:08;96527.28;;;13.76;89.09
9525;BME280;15940;48.734;9.112;2022-10-16T04:01:35;96518.88;;;13.73;89.30
9525;BME280;15940;48.734;9.112;2022-10-16T04:04:02;96527.28;;;13.76;89.27
9525;BME280;15940;48.734;9.112;2022-10-16T04:06:28;96521.59;;;13.73;89.27
9525;BME280;15940;48.734;9.112;2022-10-16T04:08:57;96522.59;;;13.76;89.54
9525;BME280;15940;48.734;9.112;2022-10-16T04:11:24;96523.59;;;13.73;89.44
9525;BME280;15940;48.734;9.112;2022-10-16T04:13:51;96524.31;;;13.73;89.48
9525;BME280;15940;48.734;9.112;2022-10-16T04:16:18;96530.28;;;13.72;89.49
9525;BME280;15940;48.734;9.112;2022-10-16T04:18:45;96521.59;;;13.73;89.44
9525;BME280;15940;48.734;9.112;2022-10-16T04:21:12;96527.03;;;13.73;89.50
9525;BME280;15940;48.734;9.112;2022-10-16T04:23:38;96516.91;;;13.74;89.31
9525;BME280;15940;48.734;9.112;2022-10-16T04:26:07;96513.94;;;13.72;89.49
9525;BME280;15940;48.734;9.112;2022-10-16T04:28:34;96520.84;;;13.73;89.40
9525;BME280;15940;48.734;9.112;2022-10-16T04:31:04;96519.63;;;13.74;89.35
9525;BME280;15940;48.734;9.112;2022-10-16T04:33:31;96521.13;;;13.75;89.16
9525;BME280;15940;48.734;9.112;2022-10-16T04:35:58;96528.25;;;13.78;88.90
9525;BME280;15940;48.734;9.112;2022-10-16T04:38:26;96521.53;;;13.85;88.81
9525;BME280;15940;48.734;9.112;2022-10-16T04:40:53;96524.47;;;13.87;88.70
9525;BME280;15940;48.734;9.112;2022-10-16T04:43:22;96524.91;;;13.91;88.29
9525;BME280;15940;48.734;9.112;2022-10-16T04:45:49;96534.06;;;13.93;88.35
9525;BME280;15940;48.734;9.112;2022-10-16T04:48:17;96531.56;;;13.95;88.19
9525;BME280;15940;48.734;9.112;2022-10-16T04:50:44;96539.19;;;14.03;87.60
9525;BME280;15940;48.734;9.112;2022-10-16T04:53:11;96546.34;;;14.06;87.68
9525;BME280;15940;48.734;9.112;2022-10-16T04:55:38;96544.56;;;14.08;87.62
9525;BME280;15940;48.734;9.112;2022-10-16T04:58:05;96541.09;;;14.08;86.92
9525;BME280;15940;48.734;9.112;2022-10-16T05:00:33;96547.06;;;14.06;87.20
9525;BME280;15940;48.734;9.112;2022-10-16T05:03:01;96557.72;;;14.04;87.18
9525;BME280;15940;48.734;9.112;2022-10-16T05:05:31;96562.44;;;14.04;87.24
9525;BME280;15940;48.734;9.112;2022-10-16T05:07:58;96553.06;;;13.99;87.37
9525;BME280;15940;48.734;9.112;2022-10-16T05:10:25;96563.00;;;13.96;87.83
9525;BME280;15940;48.734;9.112;2022-10-16T05:12:52;96559.56;;;13.90;87.58
9525;BME280;15940;48.734;9.112;2022-10-16T05:15:19;96570.00;;;13.86;87.90
9525;BME280;15940;48.734;9.112;2022-10-16T05:17:47;96559.38;;;13.83;87.96
9525;BME280;15940;48.734;9.112;2022-10-16T05:20:18;96552.75;;;13.78;88.19
9525;BME280;15940;48.734;9.112;2022-10-16T05:22:45;96559.47;;;13.71;88.40
9525;BME280;15940;48.734;9.112;2022-10-16T05:25:12;96555.56;;;13.67;88.55
9525;BME280;15940;48.734;9.112;2022-10-16T05:27:39;96559.78;;;13.62;88.93
9525;BME280;15940;48.734;9.112;2022-10-16T05:30:07;96561.31;;;13.58;88.96
9525;BME280;15940;48.734;9.112;2022-10-16T05:32:35;96561.88;;;13.51;88.99
9525;BME280;15940;48.734;9.112;2022-10-16T05:35:04;96567.84;;;13.43;88.91
9525;BME280;15940;48.734;9.112;2022-10-16T05:37:31;96570.38;;;13.36;89.10
9525;BME280;15940;48.734;9.112;2022-10-16T05:39:58;96574.09;;;13.33;89.33
9525;BME280;15940;48.734;9.112;2022-10-16T05:42:25;96572.16;;;13.28;89.63
9525;BME280;15940;48.734;9.112;2022-10-16T05:44:52;96582.06;;;13.25;89.68
9525;BME280;15940;48.734;9.112;2022-10-16T05:47:20;96570.94;;;13.23;90.12
9525;BME280;15940;48.734;9.112;2022-10-16T05:49:47;96578.09;;;13.26;90.36
9525;BME280;15940;48.734;9.112;2022-10-16T05:52:15;96574.16;;;13.27;90.22
9525;BME280;15940;48.734;9.112;2022-10-16T05:54:43;96581.06;;;13.28;90.41
9525;BME280;15940;48.734;9.112;2022-10-16T05:57:10;96573.88;;;13.31;90.45
9525;BME280;15940;48.734;9.112;2022-10-16T05:59:37;96579.53;;;13.33;90.82
9525;BME280;15940;48.734;9.112;2022-10-16T06:02:04;96593.88;;;13.33;90.70
9525;BME280;15940;48.734;9.112;2022-10-16T06:04:31;96586.97;;;13.32;90.74
9525;BME280;15940;48.734;9.112;2022-10-16T06:06:58;96587.94;;;13.35;90.81
9525;BME280;15940;48.734;9.112;2022-10-16T06:09:28;96595.63;;;13.36;90.84
9525;BME280;15940;48.734;9.112;2022-10-16T06:11:55;96597.81;;;13.38;90.78
9525;BME280;15940;48.734;9.112;2022-10-16T06:14:22;96595.09;;;13.38;90.92
9525;BME280;15940;48.734;9.112;2022-10-16T06:16:49;96596.06;;;13.40;90.80
9525;BME280;15940;48.734;9.112;2022-10-16T06:19:16;96595.56;;;13.42;90.96
9525;BME280;15940;48.734;9.112;2022-10-16T06:21:43;96599.25;;;13.44;91.15
9525;BME280;15940;48.734;9.112;2022-10-16T06:24:10;96604.66;;;13.50;91.01
9525;BME280;15940;48.734;9.112;2022-10-16T06:26:39;96610.34;;;13.52;91.32
9525;BME280;15940;48.734;9.112;2022-10-16T06:29:05;96606.84;;;13.57;91.26
9525;BME280;15940;48.734;9.112;2022-10-16T06:31:32;96609.00;;;13.64;91.28
9525;BME280;15940;48.734;9.112;2022-10-16T06:34:00;96600.06;;;13.75;91.04
9525;BME280;15940;48.734;9.112;2022-10-16T06:36:27;96602.19;;;13.88;91.02
9525;BME280;15940;48.734;9.112;2022-10-16T06:38:55;96599.38;;;13.99;90.06
9525;BME280;15940;48.734;9.112;2022-10-16T06:41:22;96613.34;;;14.14;88.96
9525;BME280;15940;48.734;9.112;2022-10-16T06:43:51;96622.16;;;14.26;88.65
9525;BME280;15940;48.734;9.112;2022-10-16T06:46:22;96619.09;;;14.35;88.00
9525;BME280;15940;48.734;9.112;2022-10-16T06:48:49;96622.50;;;14.47;87.61
9525;BME280;15940;48.734;9.112;2022-10-16T06:51:18;96624.13;;;14.55;86.39
9525;BME280;15940;48.734;9.112;2022-10-16T06:53:48;96634.19;;;14.66;86.23
9525;BME280;15940;48.734;9.112;2022-10-16T06:56:17;96635.59;;;14.73;85.64
9525;BME280;15940;48.734;9.112;2022-10-16T06:58:45;96630.59;;;14.77;85.43
9525;BME280;15940;48.734;9.112;2022-10-16T07:01:15;96640.19;;;14.83;84.95
9525;BME280;15940;48.734;9.112;2022-10-16T07:03:44;96643.03;;;14.97;84.53
9525;BME280;15940;48.734;9.112;2022-10-16T07:06:14;96640.25;;;15.02;84.28
9525;BME280;15940;48.734;9.112;2022-10-16T07:08:44;96647.03;;;15.14;84.19
9525;BME280;15940;48.734;9.112;2022-10-16T07:11:14;96646.44;;;15.22;83.77
9525;BME280;15940;48.734;9.112;2022-10-16T07:13:43;96659.75;;;15.31;83.98
9525;BME280;15940;48.734;9.112;2022-10-16T07:16:14;96660.69;;;15.33;83.36
9525;BME280;15940;48.734;9.112;2022-10-16T07:18:42;96661.22;;;15.32;82.70
9525;BME280;15940;48.734;9.112;2022-10-16T07:21:13;96672.59;;;15.36;82.65
9525;BME280;15940;48.734;9.112;2022-10-16T07:23:41;96678.47;;;15.40;82.91
9525;BME280;15940;48.734;9.112;2022-10-16T07:26:09;96689.09;;;15.43;82.25
9525;BME280;15940;48.734;9.112;2022-10-16T07:28:37;96691.91;;;15.38;82.29
9525;BME280;15940;48.734;9.112;2022-10-16T07:31:07;96694.34;;;15.41;82.35
9525;BME280;15940;48.734;9.112;2022-10-16T07:33:39;96693.59;;;15.41;82.11
9525;BME280;15940;48.734;9.112;2022-10-16T07:36:07;96686.44;;;15.38;82.32
9525;BME280;15940;48.734;9.112;2022-10-16T07:38:34;96696.53;;;15.43;81.97
9525;BME280;15940;48.734;9.112;2022-10-16T07:41:04;96693.03;;;15.48;81.56
9525;BME280;15940;48.734;9.112;2022-10-16T07:43:32;96688.72;;;15.53;81.36
9525;BME280;15940;48.734;9.112;2022-10-16T07:46:00;96694.66;;;15.57;81.49
9525;BME280;15940;48.734;9.112;2022-10-16T07:48:29;96694.84;;;15.64;80.61
9525;BME280;15940;48.734;9.112;2022-10-16T07:50:59;96699.78;;;15.66;80.28
9525;BME280;15940;48.734;9.112;2022-10-16T07:53:26;96706.41;;;15.70;80.32
9525;BME280;15940;48.734;9.112;2022-10-16T07:55:58;96707.81;;;15.77;80.27
9525;BME280;15940;48.734;9.112;2022-10-16T07:58:25;96713.78;;;15.76;80.82
9525;BME280;15940;48.734;9.112;2022-10-16T08:00:52;96718.75;;;15.77;80.45
9525;BME280;15940;48.734;9.112;2022-10-16T08:03:19;96714.44;;;15.82;79.69
9525;BME280;15940;48.734;9.112;2022-10-16T08:05:46;96711.34;;;15.91;79.06
9525;BME280;15940;48.734;9.112;2022-10-16T08:08:16;96714.44;;;16.00;78.93
9525;BME280;15940;48.734;9.112;2022-10-16T08:10:44;96722.69;;;16.14;78.58
9525;BME280;15940;48.734;9.112;2022-10-16T08:13:11;96718.09;;;16.22;77.64
9525;BME280;15940;48.734;9.112;2022-10-16T08:15:40;96715.72;;;16.32;76.69
9525;BME280;15940;48.734;9.112;2022-10-16T08:18:07;96722.69;;;16.46;77.59
9525;BME280;15940;48.734;9.112;2022-10-16T08:20:35;96723.16;;;16.63;76.41
9525;BME280;15940;48.734;9.112;2022-10-16T08:23:03;96717.53;;;16.74;75.75
9525;BME280;15940;48.734;9.112;2022-10-16T08:25:31;96734.38;;;16.92;74.83
9525;BME280;15940;48.734;9.112;2022-10-16T08:28:00;96731.25;;;17.01;74.53
9525;BME280;15940;48.734;9.112;2022-10-16T08:30:29;96733.16;;;17.06;74.65
9525;BME280;15940;48.734;9.112;2022-10-16T08:32:56;96739.25;;;17.12;73.59
9525;BME280;15940;48.734;9.112;2022-10-16T08:35:24;96738.94;;;17.16;74.15
9525;BME280;15940;48.734;9.112;2022-10-16T08:37:51;96745.97;;;17.24;74.93
9525;BME280;15940;48.734;9.112;2022-10-16T08:40:22;96754.94;;;17.25;74.34
9525;BME280;15940;48.734;9.112;2022-10-16T08:43:18;96749.16;;;17.15;73.56
9525;BME280;15940;48.734;9.112;2022-10-16T08:46:22;96749.56;;;17.06;73.63
9525;BME280;15940;48.734;9.112;2022-10-16T08:48:55;96748.59;;;17.03;73.70
9525;BME280;15940;48.734;9.112;2022-10-16T08:51:26;96745.88;;;17.03;73.71
9525;BME280;15940;48.734;9.112;2022-10-16T08:53:57;96747.44;;;16.99;75.26
9525;BME280;15940;48.734;9.112;2022-10-16T08:56:25;96761.88;;;16.99;74.69
9525;BME280;15940;48.734;9.112;2022-10-16T08:58:54;96760.94;;;17.10;75.10
9525;BME280;15940;48.734;9.112;2022-10-16T09:01:23;96760.72;;;17.21;75.33
9525;BME280;15940;48.734;9.112;2022-10-16T09:04:08;96768.53;;;17.44;74.36
9525;BME280;15940;48.734;9.112;2022-10-16T09:06:46;96769.16;;;17.63;72.97
9525;BME280;15940;48.734;9.112;2022-10-16T09:09:35;96770.28;;;17.81;72.58
9525;BME280;15940;48.734;9.112;2022-10-16T09:12:12;96755.59;;;18.05;72.52
9525;BME280;15940;48.734;9.112;2022-10-16T09:15:01;96756.38;;;18.47;71.29
9525;BME280;15940;48.734;9.112;2022-10-16T09:17:40;96740.72;;;18.55;69.86
9525;BME280;15940;48.734;9.112;2022-10-16T09:20:29;96769.84;;;19.00;68.73
9525;BME280;15940;48.734;9.112;2022-10-16T09:23:13;96763.25;;;19.24;67.03
9525;BME280;15940;48.734;9.112;2022-10-16T09:25:44;96772.41;;;19.26;66.60
9525;BME280;15940;48.734;9.112;2022-10-16T09:28:13;96768.81;;;19.10;67.92
9525;BME280;15940;48.734;9.112;2022-10-16T09:30:41;96779.28;;;18.91;68.33
9525;BME280;15940;48.734;9.112;2022-10-16T09:33:11;96780.88;;;19.36;67.55
9525;BME280;15940;48.734;9.112;2022-10-16T09:35:41;96777.13;;;19.83;65.54
9525;BME280;15940;48.734;9.112;2022-10-16T09:38:09;96774.41;;;19.98;64.49
9525;BME280;15940;48.734;9.112;2022-10-16T09:40:47;96778.38;;;19.74;64.04
9525;BME280;15940;48.734;9.112;2022-10-16T09:43:21;96783.19;;;19.53;65.65
9525;BME280;15940;48.734;9.112;2022-10-16T09:45:59;96778.69;;;19.63;65.33
9525;BME280;15940;48.734;9.112;2022-10-16T09:48:31;96782.75;;;20.21;63.73
9525;BME280;15940;48.734;9.112;2022-10-16T09:51:03;96784.34;;;20.83;62.22
9525;BME280;15940;48.734;9.112;2022-10-16T09:53:41;96778.47;;;20.79;61.35
9525;BME280;15940;48.734;9.112;2022-10-16T09:56:12;96780.47;;;20.71;61.37
9525;BME280;15940;48.734;9.112;2022-10-16T09:58:49;96778.81;;;20.60;60.88
9525;BME280;15940;48.734;9.112;2022-10-16T10:01:20;96776.97;;;20.55;62.25
9525;BME280;15940;48.734;9.112;2022-10-16T10:03:47;96787.47;;;20.87;60.60
9525;BME280;15940;48.734;9.112;2022-10-16T10:06:27;96791.88;;;21.13;60.13
9525;BME280;15940;48.734;9.112;2022-10-16T10:09:06;96798.66;;;21.12;59.74
9525;BME280;15940;48.734;9.112;2022-10-16T10:11:46;96797.94;;;21.27;59.88
9525;BME280;15940;48.734;9.112;2022-10-16T10:14:28;96794.06;;;21.22;60.36
9525;BME280;15940;48.734;9.112;2022-10-16T10:17:17;96800.50;;;21.25;59.50
9525;BME280;15940;48.734;9.112;2022-10-16T10:19:51;96799.09;;;21.79;59.34
9525;BME280;15940;48.734;9.112;2022-10-16T10:22:38;96802.91;;;21.99;58.62
9525;BME280;15940;48.734;9.112;2022-10-16T10:25:44;96798.94;;;21.77;56.95
9525;BME280;15940;48.734;9.112;2022-10-16T10:28:25;96796.03;;;21.60;58.39
9525;BME280;15940;48.734;9.112;2022-10-16T10:31:02;96799.03;;;21.39;58.07
9525;BME280;15940;48.734;9.112;2022-10-16T10:33:41;96797.94;;;21.42;58.48
9525;BME280;15940;48.734;9.112;2022-10-16T10:36:22;96799.00;;;21.62;59.84
9525;BME280;15940;48.734;9.112;2022-10-16T10:38:56;96794.69;;;21.84;57.57
9525;BME280;15940;48.734;9.112;2022-10-16T10:45:03;96805.63;;;22.14;57.25
9525;BME280;15940;48.734;9.112;2022-10-16T10:47:47;96808.91;;;22.53;56.13
9525;BME280;15940;48.734;9.112;2022-10-16T10:50:25;96807.78;;;22.89;56.90
9525;BME280;15940;48.734;9.112;2022-10-16T10:53:04;96806.91;;;23.28;54.22
9525;BME280;15940;48.734;9.112;2022-10-16T10:55:40;96795.03;;;23.60;54.10
9525;BME280;15940;48.734;9.112;2022-10-16T10:58:48;96804.44;;;23.75;54.08
9525;BME280;15940;48.734;9.112;2022-10-16T11:01:24;96802.75;;;23.79;52.25
9525;BME280;15940;48.734;9.112;2022-10-16T11:04:25;96800.34;;;24.10;51.28
9525;BME280;15940;48.734;9.112;2022-10-16T11:07:00;96803.84;;;24.11;51.66
9525;BME280;15940;48.734;9.112;2022-10-16T11:09:33;96796.03;;;24.00;50.96
9525;BME280;15940;48.734;9.112;2022-10-16T11:12:07;96800.88;;;23.82;52.01
9525;BME280;15940;48.734;9.112;2022-10-16T11:14:42;96789.75;;;23.47;52.38
9525;BME280;15940;48.734;9.112;2022-10-16T11:17:16;96802.09;;;23.29;54.43
9525;BME280;15940;48.734;9.112;2022-10-16T11:19:50;96794.91;;;23.08;53.98
9525;BME280;15940;48.734;9.112;2022-10-16T11:22:24;96797.69;;;22.84;52.74
9525;BME280;15940;48.734;9.112;2022-10-16T11:25:02;96799.06;;;22.67;55.93
9525;BME280;15940;48.734;9.112;2022-10-16T11:27:37;96794.00;;;22.56;54.18
9525;BME280;15940;48.734;9.112;2022-10-16T11:30:14;96800.66;;;22.45;54.41
9525;BME280;15940;48.734;9.112;2022-10-16T11:32:58;96808.78;;;22.43;56.57
9525;BME280;15940;48.734;9.112;2022-10-16T11:35:38;96796.66;;;22.71;57.04
9525;BME280;15940;48.734;9.112;2022-10-16T11:38:15;96792.69;;;22.82;55.55
9525;BME280;15940;48.734;9.112;2022-10-16T11:40:50;96787.88;;;22.65;55.35
9525;BME280;15940;48.734;9.112;2022-10-16T11:43:26;96789.50;;;22.68;54.71
9525;BME280;15940;48.734;9.112;2022-10-16T11:45:58;96786.78;;;22.93;55.75
9525;BME280;15940;48.734;9.112;2022-10-16T11:48:35;96784.94;;;23.13;53.64
9525;BME280;15940;48.734;9.112;2022-10-16T11:51:14;96785.34;;;23.27;53.85
9525;BME280;15940;48.734;9.112;2022-10-16T11:53:50;96780.72;;;23.29;53.03
9525;BME280;15940;48.734;9.112;2022-10-16T11:56:21;96779.34;;;23.38;53.19
9525;BME280;15940;48.734;9.112;2022-10-16T11:58:56;96778.97;;;23.42;50.32
9525;BME280;15940;48.734;9.112;2022-10-16T12:01:31;96774.06;;;23.32;53.58
9525;BME280;15940;48.734;9.112;2022-10-16T12:04:15;96766.69;;;23.52;51.94
9525;BME280;15940;48.734;9.112;2022-10-16T12:06:46;96775.38;;;23.83;52.93
9525;BME280;15940;48.734;9.112;2022-10-16T12:09:23;96770.63;;;24.11;54.07
9525;BME280;15940;48.734;9.112;2022-10-16T12:11:51;96771.25;;;24.19;50.93
9525;BME280;15940;48.734;9.112;2022-10-16T12:17:24;96768.00;;;24.57;49.86
9525;BME280;15940;48.734;9.112;2022-10-16T12:19:59;96779.34;;;24.61;51.59
9525;BME280;15940;48.734;9.112;2022-10-16T12:22:29;96778.56;;;24.78;49.92
9525;BME280;15940;48.734;9.112;2022-10-16T12:24:59;96781.72;;;24.65;49.00
9525;BME280;15940;48.734;9.112;2022-10-16T12:27:29;96780.69;;;24.16;49.53
9525;BME280;15940;48.734;9.112;2022-10-16T12:29:58;96776.94;;;24.21;51.77
9525;BME280;15940;48.734;9.112;2022-10-16T12:32:32;96791.28;;;24.27;51.89
9525;BME280;15940;48.734;9.112;2022-10-16T12:35:00;96791.59;;;24.31;52.00
9525;BME280;15940;48.734;9.112;2022-10-16T12:37:33;96791.88;;;24.08;50.07
9525;BME280;15940;48.734;9.112;2022-10-16T12:40:15;96791.09;;;23.98;50.39
9525;BME280;15940;48.734;9.112;2022-10-16T12:42:43;96782.88;;;23.73;49.50
9525;BME280;15940;48.734;9.112;2022-10-16T12:45:29;96787.38;;;23.26;49.61
9525;BME280;15940;48.734;9.112;2022-10-16T12:47:59;96782.34;;;22.90;49.43
9525;BME280;15940;48.734;9.112;2022-10-16T12:50:34;96773.53;;;22.59;51.42
9525;BME280;15940;48.734;9.112;2022-10-16T12:53:04;96779.09;;;22.51;53.34
9525;BME280;15940;48.734;9.112;2022-10-16T12:55:54;96789.16;;;22.32;53.92
9525;BME280;15940;48.734;9.112;2022-10-16T12:58:42;96787.22;;;22.17;55.14
9525;BME280;15940;48.734;9.112;2022-10-16T13:01:25;96790.22;;;21.96;58.31
9525;BME280;15940;48.734;9.112;2022-10-16T13:04:20;96789.00;;;21.82;58.01
9525;BME280;15940;48.734;9.112;2022-10-16T13:06:56;96797.63;;;21.86;56.89
9525;BME280;15940;48.734;9.112;2022-10-16T13:09:40;96805.88;;;21.86;57.20
9525;BME280;15940;48.734;9.112;2022-10-16T13:12:25;96799.44;;;21.91;58.84
9525;BME280;15940;48.734;9.112;2022-10-16T13:15:30;96800.91;;;21.92;54.92
9525;BME280;15940;48.734;9.112;2022-10-16T13:18:10;96798.72;;;21.90;55.56
9525;BME280;15940;48.734;9.112;2022-10-16T13:21:00;96809.53;;;21.96;55.57
9525;BME280;15940;48.734;9.112;2022-10-16T13:23:34;96812.63;;;22.08;57.97
9525;BME280;15940;48.734;9.112;2022-10-16T13:26:19;96806.91;;;22.13;55.71
9525;BME280;15940;48.734;9.112;2022-10-16T13:28:50;96809.66;;;22.06;54.80
9525;BME280;15940;48.734;9.112;2022-10-16T13:31:21;96798.56;;;21.81;57.21
9525;BME280;15940;48.734;9.112;2022-10-16T13:33:51;96798.72;;;21.90;57.81
9525;BME280;15940;48.734;9.112;2022-10-16T13:36:23;96804.56;;;22.02;55.84
9525;BME280;15940;48.734;9.112;2022-10-16T13:39:07;96809.13;;;22.15;55.91
9525;BME280;15940;48.734;9.112;2022-10-16T13:41:37;96807.59;;;22.29;53.84